createdAt,value
2022-11-24T00:00:35.808Z,20.80
2022-11-24T00:03:07.530Z,21.00
2022-11-24T00:05:40.204Z,21.10
2022-11-24T00:08:10.896Z,21.20
2022-11-24T00:10:41.107Z,21.40
2022-11-24T00:13:11.381Z,21.40
2022-11-24T00:15:41.690Z,21.50
2022-11-24T00:18:12.396Z,21.60
2022-11-24T00:20:54.307Z,21.60
2022-11-24T00:23:25.621Z,21.60
2022-11-24T00:25:55.928Z,21.60
2022-11-24T00:28:26.556Z,21.70
2022-11-24T00:30:56.892Z,21.90
2022-11-24T00:33:27.250Z,22.00
2022-11-24T00:36:02.642Z,22.20
2022-11-24T00:38:36.261Z,22.30
2022-11-24T00:41:07.254Z,22.50
2022-11-24T00:43:37.744Z,22.60
2022-11-24T00:46:08.379Z,22.70
2022-11-24T00:48:38.828Z,22.70
2022-11-24T00:51:12.589Z,22.70
2022-11-24T00:53:43.402Z,22.70
2022-11-24T00:56:14.602Z,22.70
2022-11-24T00:58:46.360Z,22.60
2022-11-24T01:01:20.683Z,22.80
2022-11-24T01:03:52.098Z,23.00
2022-11-24T01:06:25.242Z,23.10
2022-11-24T01:08:56.336Z,23.10
2022-11-24T01:11:28.096Z,23.10
2022-11-24T01:14:01.195Z,23.00
2022-11-24T01:16:37.009Z,23.00
2022-11-24T01:19:07.419Z,23.10
2022-11-24T01:21:37.751Z,23.20
2022-11-24T01:24:08.355Z,23.30
2022-11-24T01:26:38.625Z,23.30
2022-11-24T01:29:08.945Z,23.30
2022-11-24T01:31:39.683Z,23.40
2022-11-24T01:34:10.091Z,23.20
2022-11-24T01:36:40.412Z,23.10
2022-11-24T01:39:10.755Z,23.20
2022-11-24T01:42:03.314Z,23.30
2022-11-24T01:44:35.442Z,23.60
2022-11-24T01:47:14.649Z,23.70
2022-11-24T01:49:50.808Z,23.90
2022-11-24T01:52:45.262Z,24.00
2022-11-24T01:55:24.029Z,24.10
2022-11-24T01:58:06.185Z,24.20
2022-11-24T02:00:38.990Z,24.10
2022-11-24T02:03:10.012Z,24.20
2022-11-24T02:06:12.117Z,24.20
2022-11-24T02:09:08.604Z,24.20
2022-11-24T02:11:42.690Z,24.20
2022-11-24T02:14:17.448Z,24.20
2022-11-24T02:16:52.807Z,24.20
2022-11-24T02:19:59.682Z,24.20
2022-11-24T02:22:42.355Z,24.20
2022-11-24T02:25:19.217Z,24.20
2022-11-24T02:27:53.697Z,24.20
2022-11-24T02:30:25.169Z,24.20
2022-11-24T02:32:56.176Z,24.30
2022-11-24T02:35:28.609Z,24.20
2022-11-24T02:37:59.262Z,24.20
2022-11-24T02:40:31.850Z,24.30
2022-11-24T02:43:16.264Z,24.40
2022-11-24T02:45:46.541Z,24.40
2022-11-24T02:48:18.916Z,24.50
2022-11-24T02:50:50.836Z,24.40
2022-11-24T02:53:21.112Z,24.40
2022-11-24T02:55:51.562Z,24.40
2022-11-24T02:58:22.229Z,24.50
2022-11-24T03:00:55.886Z,24.50
2022-11-24T03:03:27.245Z,24.50
2022-11-24T03:05:57.669Z,24.50
2022-11-24T03:08:28.537Z,24.50
2022-11-24T03:10:59.525Z,24.50
2022-11-24T03:13:30.002Z,24.50
2022-11-24T03:16:00.565Z,24.40
2022-11-24T03:18:31.019Z,24.30
2022-11-24T03:21:04.332Z,24.30
2022-11-24T03:23:34.628Z,24.30
2022-11-24T03:26:13.123Z,24.40
2022-11-24T03:28:44.261Z,24.40
2022-11-24T03:31:15.374Z,24.40
2022-11-24T03:33:47.413Z,24.40
2022-11-24T03:36:20.079Z,24.40
2022-11-24T03:38:51.166Z,24.40
2022-11-24T03:41:23.083Z,24.30
2022-11-24T03:43:53.940Z,24.30
2022-11-24T03:46:24.294Z,24.30
2022-11-24T03:48:54.965Z,24.30
2022-11-24T03:51:25.228Z,24.20
2022-11-24T03:53:56.162Z,24.20
2022-11-24T03:56:26.972Z,24.10
2022-11-24T03:58:57.712Z,24.00
2022-11-24T04:01:28.114Z,24.00
2022-11-24T04:03:58.568Z,24.00
2022-11-24T04:06:28.987Z,24.10
2022-11-24T04:08:59.378Z,24.10
2022-11-24T04:11:47.755Z,24.00
2022-11-24T04:14:18.610Z,23.90
2022-11-24T04:16:49.370Z,23.90
2022-11-24T04:19:20.206Z,23.80
2022-11-24T04:21:52.115Z,23.80
2022-11-24T04:24:23.601Z,23.70
2022-11-24T04:26:53.826Z,23.70
2022-11-24T04:29:24.306Z,23.60
2022-11-24T04:31:54.591Z,23.40
2022-11-24T04:34:25.017Z,23.30
2022-11-24T04:36:55.411Z,23.30
2022-11-24T04:39:28.507Z,23.30
2022-11-24T04:41:59.711Z,23.30
2022-11-24T04:44:30.577Z,23.20
2022-11-24T04:47:00.964Z,23.20
2022-11-24T04:49:31.580Z,23.10
2022-11-24T04:52:02.707Z,23.20
2022-11-24T04:54:33.694Z,23.20
2022-11-24T04:57:04.118Z,23.20
2022-11-24T04:59:35.504Z,23.10
2022-11-24T05:02:06.160Z,23.10
2022-11-24T05:04:37.290Z,23.10
2022-11-24T05:07:08.040Z,23.10
2022-11-24T05:09:59.790Z,23.10
2022-11-24T05:12:33.839Z,23.10
2022-11-24T05:15:07.340Z,23.10
2022-11-24T05:17:40.092Z,23.00
2022-11-24T05:20:11.079Z,22.80
2022-11-24T05:22:41.310Z,22.60
2022-11-24T05:25:12.614Z,22.50
2022-11-24T05:27:44.068Z,22.40
2022-11-24T05:30:15.874Z,22.40
2022-11-24T05:32:46.906Z,22.40
2022-11-24T05:35:17.899Z,22.30
2022-11-24T05:37:49.253Z,22.20
2022-11-24T05:40:20.162Z,22.10
2022-11-24T05:42:50.682Z,22.10
2022-11-24T05:45:23.689Z,21.90
2022-11-24T05:47:54.923Z,21.80
2022-11-24T05:50:26.290Z,21.70
2022-11-24T05:52:56.540Z,21.70
2022-11-24T05:55:27.372Z,21.70
2022-11-24T05:58:05.362Z,21.60
2022-11-24T06:00:38.760Z,21.60
2022-11-24T06:03:09.695Z,21.60
2022-11-24T06:05:41.019Z,21.60
2022-11-24T06:08:13.173Z,21.60
2022-11-24T06:10:44.419Z,21.60
2022-11-24T06:13:15.375Z,21.70
2022-11-24T06:15:46.010Z,21.60
2022-11-24T06:18:16.255Z,21.70
2022-11-24T06:21:09.191Z,21.70
2022-11-24T06:23:36.719Z,21.80
2022-11-24T06:26:07.394Z,21.80
2022-11-24T06:28:38.802Z,21.80
2022-11-24T06:31:09.820Z,21.70
2022-11-24T06:33:41.084Z,21.70
2022-11-24T06:36:15.184Z,21.60
2022-11-24T06:38:45.832Z,21.60
2022-11-24T06:41:18.955Z,21.60
2022-11-24T06:43:49.710Z,21.60
2022-11-24T06:46:20.137Z,21.60
2022-11-24T06:48:53.875Z,21.50
2022-11-24T06:51:27.640Z,21.50
2022-11-24T06:53:58.107Z,21.40
2022-11-24T06:56:28.524Z,21.40
2022-11-24T06:58:58.755Z,21.40
2022-11-24T07:01:31.591Z,21.30
2022-11-24T07:04:02.774Z,21.30
2022-11-24T07:06:33.965Z,21.20
2022-11-24T07:09:04.974Z,21.20
2022-11-24T07:11:35.845Z,21.20
2022-11-24T07:14:06.625Z,21.10
2022-11-24T07:16:37.432Z,21.20
2022-11-24T07:19:08.315Z,21.10
2022-11-24T07:21:38.539Z,21.10
2022-11-24T07:24:09.165Z,21.00
2022-11-24T07:26:39.904Z,21.00
2022-11-24T07:29:10.581Z,20.90
2022-11-24T07:31:41.932Z,20.90
2022-11-24T07:34:13.293Z,20.80
2022-11-24T07:36:45.257Z,20.80
2022-11-24T07:39:16.287Z,20.80
2022-11-24T07:41:47.282Z,20.80
2022-11-24T07:44:18.285Z,20.70
2022-11-24T07:46:50.070Z,20.70
2022-11-24T07:49:21.039Z,20.70
2022-11-24T07:51:51.718Z,20.60
2022-11-24T07:54:23.376Z,20.60
2022-11-24T07:56:53.829Z,20.60
2022-11-24T07:59:24.186Z,20.60
2022-11-24T08:01:54.945Z,20.50
2022-11-24T08:04:25.609Z,20.50
2022-11-24T08:06:57.522Z,20.40
2022-11-24T08:09:29.145Z,20.30
2022-11-24T08:12:08.808Z,20.20
2022-11-24T08:14:45.484Z,20.10
2022-11-24T08:17:17.379Z,20.00
2022-11-24T08:19:51.535Z,19.90
2022-11-24T08:22:22.592Z,19.80
2022-11-24T08:24:55.702Z,19.70
2022-11-24T08:27:25.912Z,19.70
2022-11-24T08:29:56.604Z,19.60
2022-11-24T08:32:27.745Z,19.50
2022-11-24T08:35:13.447Z,19.50
2022-11-24T08:37:50.315Z,19.50
2022-11-24T08:40:23.220Z,19.40
2022-11-24T08:42:55.066Z,19.40
2022-11-24T08:45:30.830Z,19.30
2022-11-24T08:48:04.475Z,19.20
2022-11-24T08:50:37.290Z,19.20
2022-11-24T08:53:09.655Z,19.10
2022-11-24T08:55:42.849Z,19.10
2022-11-24T08:58:13.551Z,19.00
2022-11-24T09:00:52.292Z,18.90
2022-11-24T09:03:27.540Z,18.90
2022-11-24T09:06:50.284Z,18.80
2022-11-24T09:09:35.027Z,18.70
2022-11-24T09:12:14.297Z,18.60
2022-11-24T09:14:51.372Z,18.50
2022-11-24T09:17:21.901Z,18.50
2022-11-24T09:25:48.532Z,18.30
2022-11-24T09:28:30.152Z,18.20
2022-11-24T09:31:21.762Z,18.10
2022-11-24T09:33:54.217Z,18.00
2022-11-24T09:36:25.722Z,18.00
2022-11-24T09:39:01.127Z,17.90
2022-11-24T09:41:52.660Z,17.90
2022-11-24T09:48:06.851Z,17.80
2022-11-24T09:50:57.974Z,17.80
2022-11-24T09:53:51.897Z,17.70
2022-11-24T09:56:34.772Z,17.70
2022-11-24T09:59:13.975Z,17.70
2022-11-24T10:01:50.273Z,17.60
2022-11-24T10:04:54.178Z,17.50
2022-11-24T10:07:32.381Z,17.50
2022-11-24T10:10:35.131Z,17.40
2022-11-24T10:13:29.693Z,17.30
2022-11-24T10:16:17.868Z,17.20
2022-11-24T10:19:16.261Z,17.20
2022-11-24T10:21:58.751Z,17.10
2022-11-24T10:25:05.748Z,17.10
2022-11-24T10:28:04.427Z,17.00
2022-11-24T10:30:34.802Z,16.90
2022-11-24T10:33:30.602Z,16.90
2022-11-24T10:36:12.789Z,16.80
2022-11-24T10:39:14.805Z,16.70
2022-11-24T10:41:53.708Z,16.60
2022-11-24T10:44:24.070Z,16.50
2022-11-24T10:46:55.188Z,16.40
2022-11-24T10:49:33.236Z,16.30
2022-11-24T10:52:16.580Z,16.10
2022-11-24T10:55:02.252Z,16.00
2022-11-24T10:57:37.161Z,16.00
2022-11-24T11:00:27.771Z,15.90
2022-11-24T11:03:20.582Z,15.80
2022-11-24T11:06:21.119Z,15.80
2022-11-24T11:09:16.806Z,15.70
2022-11-24T11:11:50.603Z,15.70
2022-11-24T11:14:37.276Z,15.60
2022-11-24T11:17:37.662Z,15.60
2022-11-24T11:20:20.279Z,15.50
2022-11-24T11:22:52.717Z,15.50
2022-11-24T11:25:34.836Z,15.50
2022-11-24T11:28:34.878Z,15.40
2022-11-24T11:31:22.923Z,15.40
2022-11-24T11:34:23.303Z,15.30
2022-11-24T11:36:58.338Z,15.30
2022-11-24T11:39:31.449Z,15.30
2022-11-24T11:42:53.598Z,15.30
2022-11-24T11:45:45.595Z,15.20
2022-11-24T11:48:43.545Z,15.20
2022-11-24T11:51:37.849Z,15.10
2022-11-24T11:54:14.139Z,15.10
2022-11-24T11:56:52.451Z,15.00
2022-11-24T11:59:23.043Z,14.90
2022-11-24T12:02:28.734Z,14.90
2022-11-24T12:05:31.989Z,14.80
2022-11-24T12:08:21.004Z,14.70
2022-11-24T12:11:36.842Z,14.70
2022-11-24T12:14:27.655Z,14.60
2022-11-24T12:17:29.156Z,14.60
2022-11-24T12:20:30.268Z,14.60
2022-11-24T12:23:20.331Z,14.50
2022-11-24T12:26:21.724Z,14.50
2022-11-24T12:28:56.149Z,14.40
2022-11-24T12:31:45.256Z,14.30
2022-11-24T12:34:29.105Z,14.30
2022-11-24T12:37:41.701Z,14.30
2022-11-24T12:40:47.163Z,14.20
2022-11-24T12:43:41.572Z,14.10
2022-11-24T12:46:22.290Z,14.10
2022-11-24T12:49:14.330Z,14.00
2022-11-24T12:52:00.920Z,14.00
2022-11-24T12:54:48.151Z,14.00
2022-11-24T12:57:44.338Z,14.00
2022-11-24T13:00:29.484Z,13.90
2022-11-24T13:03:39.298Z,13.90
2022-11-24T13:06:36.583Z,13.90
2022-11-24T13:09:15.351Z,13.90
2022-11-24T13:14:41.203Z,13.90
2022-11-24T13:17:52.473Z,13.90
2022-11-24T13:20:36.243Z,13.90
2022-11-24T13:23:13.565Z,13.80
2022-11-24T13:26:30.694Z,13.80
2022-11-24T13:29:23.693Z,13.70
2022-11-24T13:31:56.133Z,13.70
2022-11-24T13:34:47.032Z,13.60
2022-11-24T13:37:31.807Z,13.60
2022-11-24T13:40:15.226Z,13.50
2022-11-24T13:43:03.305Z,13.50
2022-11-24T13:45:46.853Z,13.40
2022-11-24T13:48:22.999Z,13.40
2022-11-24T13:50:56.457Z,13.40
2022-11-24T13:53:47.359Z,13.30
2022-11-24T13:56:17.977Z,13.30
2022-11-24T13:58:53.475Z,13.30
2022-11-24T14:01:25.499Z,13.30
2022-11-24T14:04:33.300Z,13.30
2022-11-24T14:07:15.441Z,13.20
2022-11-24T14:09:54.881Z,13.10
2022-11-24T14:12:28.920Z,13.10
2022-11-24T14:15:31.183Z,13.10
2022-11-24T14:18:01.977Z,13.00
2022-11-24T14:20:32.414Z,13.00
2022-11-24T14:23:03.513Z,13.00
2022-11-24T14:25:38.595Z,13.00
2022-11-24T14:28:28.393Z,12.90
2022-11-24T14:31:27.275Z,12.90
2022-11-24T14:34:28.146Z,12.90
2022-11-24T14:36:59.919Z,12.80
2022-11-24T14:39:31.986Z,12.80
2022-11-24T14:42:08.501Z,12.80
2022-11-24T14:44:58.118Z,12.80
2022-11-24T14:47:36.226Z,12.70
2022-11-24T14:50:29.799Z,12.70
2022-11-24T14:53:02.153Z,12.60
2022-11-24T14:55:34.727Z,12.60
2022-11-24T14:58:06.842Z,12.50
2022-11-24T15:00:40.888Z,12.50
2022-11-24T15:03:34.499Z,12.50
2022-11-24T15:06:05.247Z,12.30
2022-11-24T15:08:46.940Z,12.30
2022-11-24T15:11:18.188Z,12.30
2022-11-24T15:14:00.041Z,12.10
2022-11-24T15:16:37.448Z,12.10
2022-11-24T15:19:10.374Z,12.10
2022-11-24T15:21:40.885Z,12.10
2022-11-24T15:24:22.144Z,12.10
2022-11-24T15:26:53.089Z,12.00
2022-11-24T15:29:24.530Z,12.00
2022-11-24T15:31:54.852Z,11.90
2022-11-24T15:34:26.186Z,11.90
2022-11-24T15:37:00.749Z,11.80
2022-11-24T15:39:32.357Z,11.80
2022-11-24T15:42:04.711Z,11.70
2022-11-24T15:44:40.059Z,11.70
2022-11-24T15:47:20.288Z,11.60
2022-11-24T15:49:51.646Z,11.50
2022-11-24T15:52:22.469Z,11.50
2022-11-24T15:54:56.181Z,11.50
2022-11-24T15:57:27.906Z,11.50
2022-11-24T15:59:58.557Z,11.50
2022-11-24T16:02:29.344Z,11.50
2022-11-24T16:05:00.365Z,11.40
2022-11-24T16:07:47.474Z,11.30
2022-11-24T16:10:35.419Z,11.30
2022-11-24T16:13:06.390Z,11.30
2022-11-24T16:15:36.875Z,11.20
2022-11-24T16:18:08.721Z,11.20
2022-11-24T16:20:39.050Z,11.30
2022-11-24T16:23:09.370Z,11.20
2022-11-24T16:25:59.299Z,11.20
2022-11-24T16:28:30.223Z,11.10
2022-11-24T16:31:00.916Z,11.10
2022-11-24T16:33:35.200Z,11.00
2022-11-24T16:36:08.029Z,11.00
2022-11-24T16:38:50.329Z,11.00
2022-11-24T16:41:22.219Z,11.00
2022-11-24T16:43:55.609Z,11.00
2022-11-24T16:46:27.920Z,10.90
2022-11-24T16:49:05.301Z,10.90
2022-11-24T16:51:35.624Z,10.80
2022-11-24T16:54:11.273Z,10.80
2022-11-24T16:56:41.502Z,10.70
2022-11-24T16:59:12.302Z,10.70
2022-11-24T17:01:50.865Z,10.70
2022-11-24T17:04:21.508Z,10.70
2022-11-24T17:06:51.703Z,10.70
2022-11-24T17:09:24.640Z,10.60
2022-11-24T17:11:55.299Z,10.60
2022-11-24T17:14:25.594Z,10.60
2022-11-24T17:16:55.883Z,10.50
2022-11-24T17:19:26.206Z,10.50
2022-11-24T17:21:56.542Z,10.50
2022-11-24T17:24:26.911Z,10.50
2022-11-24T17:26:57.261Z,10.40
2022-11-24T17:29:29.755Z,10.40
2022-11-24T17:32:00.110Z,10.40
2022-11-24T17:34:30.586Z,10.30
2022-11-24T17:37:00.845Z,10.30
2022-11-24T17:39:31.842Z,10.20
2022-11-24T17:42:02.510Z,10.20
2022-11-24T17:44:34.822Z,10.20
2022-11-24T17:47:05.547Z,10.20
2022-11-24T17:49:35.903Z,10.10
2022-11-24T17:52:06.227Z,10.10
2022-11-24T17:54:46.296Z,10.10
2022-11-24T17:57:18.702Z,10.10
2022-11-24T17:59:49.140Z,10.00
2022-11-24T18:02:19.414Z,10.00
2022-11-24T18:04:49.955Z,10.00
2022-11-24T18:07:23.211Z,10.00
2022-11-24T18:09:57.334Z,10.00
2022-11-24T18:12:28.815Z,9.90
2022-11-24T18:14:59.165Z,9.90
2022-11-24T18:17:30.720Z,9.90
2022-11-24T18:20:01.010Z,10.00
2022-11-24T18:22:57.787Z,9.90
2022-11-24T18:25:23.096Z,10.00
2022-11-24T18:27:53.456Z,10.00
2022-11-24T18:30:23.932Z,9.90
2022-11-24T18:32:54.366Z,9.90
2022-11-24T18:35:24.851Z,9.90
2022-11-24T18:37:55.616Z,9.80
2022-11-24T18:40:25.888Z,9.70
2022-11-24T18:42:56.075Z,9.70
2022-11-24T18:45:26.810Z,9.70
2022-11-24T18:47:57.510Z,9.70
2022-11-24T18:50:27.906Z,9.70
2022-11-24T18:52:58.093Z,9.60
2022-11-24T18:55:28.407Z,9.60
2022-11-24T18:57:59.179Z,9.60
2022-11-24T19:00:29.701Z,9.50
2022-11-24T19:02:59.895Z,9.50
2022-11-24T19:05:30.254Z,9.50
2022-11-24T19:08:00.464Z,9.50
2022-11-24T19:10:30.826Z,9.60
2022-11-24T19:13:01.115Z,9.60
2022-11-24T19:15:36.011Z,9.60
2022-11-24T19:18:09.384Z,9.60
2022-11-24T19:20:39.604Z,9.60
2022-11-24T19:23:09.849Z,9.60
2022-11-24T19:25:40.223Z,9.60
2022-11-24T19:28:14.238Z,9.60
2022-11-24T19:30:47.417Z,9.60
2022-11-24T19:33:17.908Z,9.70
2022-11-24T19:35:48.175Z,9.80
2022-11-24T19:38:30.073Z,9.80
2022-11-24T19:41:12.355Z,9.80
2022-11-24T19:43:43.375Z,9.90
2022-11-24T19:46:16.136Z,10.00
2022-11-24T19:48:49.083Z,10.00
2022-11-24T19:51:24.009Z,10.10
2022-11-24T19:53:55.261Z,10.20
2022-11-24T19:56:29.182Z,10.20
2022-11-24T19:59:00.554Z,10.30
2022-11-24T20:01:35.156Z,10.30
2022-11-24T20:04:11.737Z,10.50
2022-11-24T20:06:44.673Z,10.60
2022-11-24T20:09:17.771Z,10.60
2022-11-24T20:11:50.490Z,10.70
2022-11-24T20:14:22.604Z,10.80
2022-11-24T20:16:53.397Z,10.90
2022-11-24T20:19:24.156Z,11.00
2022-11-24T20:21:56.683Z,11.10
2022-11-24T20:24:28.328Z,11.20
2022-11-24T20:27:02.255Z,11.20
2022-11-24T20:29:36.905Z,11.30
2022-11-24T20:32:07.321Z,11.40
2022-11-24T20:34:38.836Z,11.40
2022-11-24T20:37:15.216Z,11.50
2022-11-24T20:39:45.452Z,11.60
2022-11-24T20:42:15.781Z,11.70
2022-11-24T20:44:46.098Z,11.80
2022-11-24T20:47:16.418Z,11.90
2022-11-24T20:49:46.705Z,12.10
2022-11-24T20:52:17.093Z,12.30
2022-11-24T20:54:48.568Z,12.40
2022-11-24T20:57:19.300Z,12.50
2022-11-24T20:59:50.138Z,12.60
2022-11-24T21:02:25.032Z,12.80
2022-11-24T21:04:55.336Z,12.90
2022-11-24T21:07:25.837Z,13.00
2022-11-24T21:09:56.529Z,13.20
2022-11-24T21:12:27.567Z,13.50
2022-11-24T21:14:58.531Z,14.00
2022-11-24T21:17:29.677Z,14.50
2022-11-24T21:20:01.304Z,15.10
2022-11-24T21:22:32.360Z,15.60
2022-11-24T21:25:04.706Z,16.20
2022-11-24T21:27:39.191Z,16.60
2022-11-24T21:30:11.442Z,17.10
2022-11-24T21:32:42.391Z,17.40
2022-11-24T21:35:13.083Z,17.80
2022-11-24T21:37:44.954Z,18.10
2022-11-24T21:40:17.181Z,18.30
2022-11-24T21:42:47.982Z,18.50
2022-11-24T21:45:18.795Z,18.70
2022-11-24T21:47:49.682Z,19.00
2022-11-24T21:50:20.409Z,19.10
2022-11-24T21:52:50.948Z,19.30
2022-11-24T21:55:21.225Z,19.60
2022-11-24T21:57:51.888Z,19.80
2022-11-24T22:00:24.361Z,20.10
2022-11-24T22:02:57.735Z,20.30
2022-11-24T22:05:32.886Z,20.50
2022-11-24T22:08:05.202Z,20.60
2022-11-24T22:10:36.509Z,20.80
2022-11-24T22:13:08.125Z,20.90
2022-11-24T22:15:38.812Z,20.90
2022-11-24T22:18:10.842Z,21.10
2022-11-24T22:20:41.614Z,21.20
2022-11-24T22:23:12.485Z,21.30
2022-11-24T22:25:44.375Z,21.40
2022-11-24T22:28:15.146Z,21.40
2022-11-24T22:30:45.753Z,21.20
2022-11-24T22:33:17.116Z,21.20
2022-11-24T22:35:57.878Z,21.20
2022-11-24T22:38:29.436Z,21.10
2022-11-24T22:41:20.296Z,20.80
2022-11-24T22:43:51.561Z,20.80
2022-11-24T22:46:24.264Z,20.80
2022-11-24T22:48:56.159Z,20.90
2022-11-24T22:51:32.083Z,20.80
2022-11-24T22:54:05.605Z,20.80
2022-11-24T22:56:37.845Z,20.70
2022-11-24T22:59:10.614Z,20.70
2022-11-24T23:01:41.438Z,20.70
2022-11-24T23:04:11.881Z,20.80
2022-11-24T23:06:42.813Z,20.80
2022-11-24T23:09:14.598Z,20.90
2022-11-24T23:11:46.292Z,21.00
2022-11-24T23:14:18.165Z,21.10
2022-11-24T23:16:48.767Z,21.00
2022-11-24T23:19:19.553Z,21.10
2022-11-24T23:21:49.904Z,21.20
2022-11-24T23:24:20.210Z,21.30
2022-11-24T23:26:50.576Z,21.40
2022-11-24T23:29:20.796Z,21.60
2022-11-24T23:31:51.314Z,21.70
2022-11-24T23:34:21.601Z,21.90
2022-11-24T23:36:52.101Z,21.90
2022-11-24T23:39:22.349Z,21.80
2022-11-24T23:41:58.438Z,21.80
2022-11-24T23:44:30.113Z,21.90
2022-11-24T23:47:00.594Z,22.00
2022-11-24T23:49:32.216Z,22.00
2022-11-24T23:52:02.520Z,22.10
2022-11-24T23:54:34.474Z,22.10
2022-11-24T23:57:04.988Z,22.30
2022-11-24T23:59:35.252Z,22.40
